WetterOnline ( https://www.wetteronline.de )

Wetter aktuell Pinneberg

Aktuelles Wetter: Quickborn (17m)

6-stündlich | Neueste Meldungen
Ortszeit Temperatur Wetter
Mo, 21.10. 20:00 11.3° C Nebel
Mo, 21.10. 14:00 13.4° C bedeckt
Mo, 21.10. 8:00 11.8° C bedeckt
Mo, 21.10. 2:00 10.9° C Sprühregen
So, 20.10. 20:00 11.0° C Sprühregen
So, 20.10. 14:00 13.5° C bedeckt
So, 20.10. 8:00 9.1° C Nebel
So, 20.10. 2:00 10.0° C wolkig
Ortszeit Temperatur Wetter
Di, 22.10. 1:30 11.5° C bewölkt
Di, 22.10. 1:20 11.5° C bewölkt
Di, 22.10. 1:10 11.5° C bewölkt
Di, 22.10. 1:00 11.6° C bewölkt
Di, 22.10. 0:50 11.6° C bewölkt
Di, 22.10. 0:40 11.8° C bewölkt
Di, 22.10. 0:30 12.3° C bewölkt
Di, 22.10. 0:00 12.6° C wolkig
Mo, 21.10. 23:30 13.3° C wolkig
Mo, 21.10. 23:00 13.5° C bewölkt
Mo, 21.10. 22:30 13.3° C leichter Regen
Ortszeit Relative Feuchte Sichtweite
Mo, 21.10. 20:00 100% 0.9 km
Mo, 21.10. 14:00 96% 5.0 km
Mo, 21.10. 8:00 94% 22 km
Mo, 21.10. 2:00 96% 10 km
So, 20.10. 20:00 95% 17 km
So, 20.10. 14:00 82% 30 km
So, 20.10. 8:00 99% 0.4 km
So, 20.10. 2:00 100% 1.2 km
Ortszeit Relative Feuchte Sichtweite
Di, 22.10. 1:30 86% 45 km
Di, 22.10. 1:20 86% -
Di, 22.10. 1:10 86% -
Di, 22.10. 1:00 85% 50 km
Di, 22.10. 0:50 85% -
Di, 22.10. 0:40 84% -
Di, 22.10. 0:30 81% 50 km
Di, 22.10. 0:00 83% 45 km
Mo, 21.10. 23:30 91% 20 km
Mo, 21.10. 23:00 96% 13 km
Mo, 21.10. 22:30 99% 10 km
Ortszeit Niederschlagsmenge Niederschlagsart
Mo, 21.10. 20:00 0.1 l/m2 in 12 Std. -
Mo, 21.10. 14:00 0.1 l/m2 in 6 Std. Regen
Mo, 21.10. 8:00 6 l/m2 in 12 Std. Regen
Mo, 21.10. 2:00 4 l/m2 in 6 Std. Regen
So, 20.10. 20:00 3 l/m2 in 12 Std. Regen
So, 20.10. 14:00 0.1 l/m2 in 6 Std. Regen
So, 20.10. 8:00 0.3 l/m2 in 12 Std. -
So, 20.10. 2:00 0.2 l/m2 in 6 Std. Regen
Ortszeit Niederschlagsmenge Niederschlagsart
Di, 22.10. 1:30 0.0 l/m2 in 1 Std. -
Di, 22.10. 1:20 keine Meldung -
Di, 22.10. 1:10 keine Meldung -
Di, 22.10. 1:00 0.0 l/m2 in 1 Std. -
Di, 22.10. 0:50 keine Meldung -
Di, 22.10. 0:40 keine Meldung -
Di, 22.10. 0:30 0.0 l/m2 in 1 Std. -
Di, 22.10. 0:00 0.0 l/m2 in 1 Std. -
Mo, 21.10. 23:30 0.0 l/m2 in 1 Std. -
Mo, 21.10. 23:00 0.1 l/m2 in 1 Std. Regen
Mo, 21.10. 22:30 0.1 l/m2 in 1 Std. -
Ortszeit Stärke Spitze Richtung
km/h Bft. km/h Grad Sektor
Mo, 21.10. 20:00 0 0 22 - -
Mo, 21.10. 14:00 11 2 22 160° S
Mo, 21.10. 8:00 9 2 33 90° O
Mo, 21.10. 2:00 9 2 24 40° NO
So, 20.10. 20:00 4 1 7 50° NO
So, 20.10. 14:00 4 1 11 220° SW
So, 20.10. 8:00 4 1 7 150° SO
So, 20.10. 2:00 4 1 18 200° S
Ortszeit Stärke Spitze Richtung
km/h Bft. km/h Grad Sektor
Di, 22.10. 1:30 4 1 7 190° S
Di, 22.10. 1:20 4 1 - 190° S
Di, 22.10. 1:10 6 1 - 190° S
Di, 22.10. 1:00 4 1 14 190° S
Di, 22.10. 0:50 4 1 - 190° S
Di, 22.10. 0:40 6 1 - 200° S
Di, 22.10. 0:30 7 2 14 220° SW
Di, 22.10. 0:00 7 2 18 220° SW
Mo, 21.10. 23:30 7 2 14 240° SW
Mo, 21.10. 23:00 7 2 25 230° SW
Mo, 21.10. 22:30 9 2 24 260° W
Ortszeit Untergrenze Bedeckung Gattung
total tief tief mittel hoch
Mo, 21.10. 20:00 <30 m 8/8 0/8 - - -
Mo, 21.10. 14:00 120 m 8/8 8/8 - - -
Mo, 21.10. 8:00 180 m 8/8 8/8 - - -
Mo, 21.10. 2:00 210 m 8/8 8/8 - - -
So, 20.10. 20:00 1320 m 8/8 8/8 - - -
So, 20.10. 14:00 1800 m 8/8 8/8 - - -
So, 20.10. 8:00 30 m 8/8 8/8 - - -
So, 20.10. 2:00 6600 m 8/8 3/8 - - -
Ortszeit Bedeckungsgrad in Achtel und Wolkenuntergrenze
Di, 22.10. 1:30 7(1320m)
Di, 22.10. 1:20 7(1320m)
Di, 22.10. 1:10 7(1320m)
Di, 22.10. 1:00 5(1230m) 7(1470m)
Di, 22.10. 0:50 5(1230m) 7(1470m)
Di, 22.10. 0:40 1(1170m) 7(1470m)
Di, 22.10. 0:30 5(1170m) 7(1500m)
Di, 22.10. 0:00 6(1080m)
Mo, 21.10. 23:30 6(870m) 6(1170m)
Mo, 21.10. 23:00 3(750m) 5(960m) 7(1500m)
Mo, 21.10. 22:30 5(60m) 7(1470m) 8(1800m)
Ortszeit Luftdruck NN (hPa) Tendenz (hPa in 3 Std.)
Mo, 21.10. 20:00 1019 + 1,9
Mo, 21.10. 14:00 1017 + 0,8
Mo, 21.10. 8:00 1015 + 1,1
Mo, 21.10. 2:00 1014 + 0,8
So, 20.10. 20:00 1013 + 1,0
So, 20.10. 14:00 1011 + 0,8
So, 20.10. 8:00 1009 + 1,3
So, 20.10. 2:00 1007 + 0,9
Ortszeit Luftdruck NN (hPa) Tendenz (hPa in 3 Std.)
Di, 22.10. 1:30 1021 + 1,1
Di, 22.10. 1:20 1021 keine Meldung
Di, 22.10. 1:10 1021 keine Meldung
Di, 22.10. 1:00 1021 + 1,5
Di, 22.10. 0:50 1021 keine Meldung
Di, 22.10. 0:40 1021 keine Meldung
Di, 22.10. 0:30 1021 + 1,4
Di, 22.10. 0:00 1021 + 1,3
Mo, 21.10. 23:30 1020 + 0,9
Mo, 21.10. 23:00 1020 + 0,8
Mo, 21.10. 22:30 1020 + 0,6
Ortszeit Schneehöhe (cm)
Mo, 21.10. 20:00 0
Mo, 21.10. 14:00 0
Mo, 21.10. 8:00 0
Mo, 21.10. 2:00 0
So, 20.10. 20:00 0
So, 20.10. 14:00 0
So, 20.10. 8:00 0
So, 20.10. 2:00 0
Ortszeit Schneehöhe (cm)
Di, 22.10. 1:30 0
Di, 22.10. 1:20 0
Di, 22.10. 1:10 0
Di, 22.10. 1:00 0
Di, 22.10. 0:50 0
Di, 22.10. 0:40 0
Di, 22.10. 0:30 0
Di, 22.10. 0:00 0
Mo, 21.10. 23:30 0
Mo, 21.10. 23:00 0
Mo, 21.10. 22:30 0
Link zu dieser Seite / Seite empfehlen

Das Wetter in ...